Time;durP1;ratioP1;P1;durP2;ratioP2;P2;SDS_P1;SDS_P2;PMS_P1;PMS_P2;Temp;Humidity;BMP_temperature;BMP_pressure;BME280_temperature;BME280_humidity;BME280_pressure;Samples;Min_cycle;Max_cycle;Signal;HPM_P1;HPM_P2
2024/02/26 00:02:11;;;;;;;15.85;14.95;;;;;;;;;;4995924;28;20230;-79
2024/02/26 00:04:47;;;;;;;15.43;14.73;;;;;;;;;;4996376;28;20257;-78
2024/02/26 00:07:14;;;;;;;15.40;14.70;;;;;;;;;;4995738;28;20662;-78
2024/02/26 00:09:42;;;;;;;15.48;14.63;;;;;;;;;;4996615;28;20210;-79
2024/02/26 00:12:09;;;;;;;15.05;14.25;;;;;;;;;;4995338;28;20249;-78
2024/02/26 00:14:36;;;;;;;14.80;14.13;;;;;;;;;;4996664;28;20229;-78
2024/02/26 00:17:03;;;;;;;14.40;13.80;;;;;;;;;;4996087;28;20211;-78
2024/02/26 00:19:30;;;;;;;15.20;14.50;;;;;;;;;;4996130;28;20553;-77
2024/02/26 00:21:57;;;;;;;14.75;14.10;;;;;;;;;;4995314;28;20249;-78
2024/02/26 00:24:24;;;;;;;15.77;14.75;;;;;;;;;;4996189;28;20885;-78
2024/02/26 00:26:54;;;;;;;16.13;15.43;;;;;;;;;;4995769;28;20260;-78
2024/02/26 00:29:21;;;;;;;15.38;14.70;;;;;;;;;;4992930;28;20678;-78
2024/02/26 00:31:48;;;;;;;15.23;14.52;;;;;;;;;;4975937;28;20207;-79
2024/02/26 00:34:15;;;;;;;15.40;14.65;;;;;;;;;;4975641;28;20289;-78
2024/02/26 00:36:42;;;;;;;15.02;14.40;;;;;;;;;;4980945;28;20218;-79
2024/02/26 00:39:10;;;;;;;15.55;14.75;;;;;;;;;;4995518;28;20229;-79
2024/02/26 00:41:39;;;;;;;14.95;14.32;;;;;;;;;;4983869;28;20702;-78
2024/02/26 00:44:08;;;;;;;15.48;14.77;;;;;;;;;;4975624;28;20221;-78
2024/02/26 00:46:35;;;;;;;16.10;15.40;;;;;;;;;;4976041;28;20207;-78
2024/02/26 00:49:02;;;;;;;15.52;14.82;;;;;;;;;;4976609;28;20203;-81
2024/02/26 00:51:29;;;;;;;15.18;14.43;;;;;;;;;;4976397;28;20211;-80
2024/02/26 00:53:56;;;;;;;14.95;14.25;;;;;;;;;;4975827;28;20293;-79
2024/02/26 00:56:23;;;;;;;15.43;14.73;;;;;;;;;;4975250;28;20261;-78
2024/02/26 00:58:51;;;;;;;16.30;15.40;;;;;;;;;;4975875;28;20761;-79
2024/02/26 01:01:19;;;;;;;15.13;14.32;;;;;;;;;;4975565;28;20211;-78
2024/02/26 01:03:46;;;;;;;15.50;14.75;;;;;;;;;;4974985;28;20321;-79
2024/02/26 01:06:13;;;;;;;15.48;14.77;;;;;;;;;;4975571;28;20211;-78
2024/02/26 01:08:40;;;;;;;15.35;14.55;;;;;;;;;;4982832;28;20218;-80
2024/02/26 01:11:07;;;;;;;14.93;14.23;;;;;;;;;;4994696;28;20214;-79
2024/02/26 01:13:35;;;;;;;14.80;14.20;;;;;;;;;;4995147;28;20305;-80
2024/02/26 01:16:02;;;;;;;15.57;14.88;;;;;;;;;;4995071;28;20213;-80
2024/02/26 01:18:30;;;;;;;15.40;14.60;;;;;;;;;;4994950;28;20272;-78
2024/02/26 01:20:57;;;;;;;15.63;14.75;;;;;;;;;;4994456;28;20210;-78
2024/02/26 01:23:24;;;;;;;15.25;14.02;;;;;;;;;;4994648;28;20238;-78
2024/02/26 01:25:51;;;;;;;14.70;14.00;;;;;;;;;;4995050;28;20214;-78
2024/02/26 01:28:18;;;;;;;14.25;13.73;;;;;;;;;;4994754;28;20272;-78
2024/02/26 01:30:45;;;;;;;15.30;14.60;;;;;;;;;;4993765;28;20210;-79
2024/02/26 01:33:12;;;;;;;14.80;14.20;;;;;;;;;;4994287;28;20277;-80
2024/02/26 01:35:41;;;;;;;14.93;14.30;;;;;;;;;;4994275;28;20278;-79
2024/02/26 01:38:07;;;;;;;15.30;14.60;;;;;;;;;;4994867;28;20265;-79
2024/02/26 01:40:36;;;;;;;14.88;14.10;;;;;;;;;;4994494;28;20206;-78
2024/02/26 01:43:03;;;;;;;15.30;14.70;;;;;;;;;;4993924;28;20241;-79
2024/02/26 01:45:30;;;;;;;14.93;14.30;;;;;;;;;;4993909;28;20210;-79
2024/02/26 01:47:57;;;;;;;15.27;14.60;;;;;;;;;;4994596;28;20206;-80
2024/02/26 01:50:25;;;;;;;15.00;14.25;;;;;;;;;;4994324;28;20268;-79
2024/02/26 01:52:54;;;;;;;14.77;14.18;;;;;;;;;;4993224;28;20217;-80
2024/02/26 01:55:21;;;;;;;15.00;14.30;;;;;;;;;;4993856;28;20345;-79
2024/02/26 01:57:51;;;;;;;15.23;14.60;;;;;;;;;;4993903;28;20205;-79
2024/02/26 02:00:19;;;;;;;16.38;15.68;;;;;;;;;;4994194;28;20284;-78
2024/02/26 02:02:48;;;;;;;15.50;14.80;;;;;;;;;;4992972;28;20702;-80
2024/02/26 02:05:17;;;;;;;14.98;14.38;;;;;;;;;;4993435;28;20218;-79
2024/02/26 02:07:44;;;;;;;15.43;14.80;;;;;;;;;;4993341;28;20359;-78
2024/02/26 02:10:13;;;;;;;15.80;15.10;;;;;;;;;;4994028;28;20209;-80
2024/02/26 02:12:40;;;;;;;15.40;14.70;;;;;;;;;;4993548;28;20547;-80
2024/02/26 02:15:08;;;;;;;15.70;15.00;;;;;;;;;;4993491;28;20214;-79
2024/02/26 02:17:35;;;;;;;15.95;15.15;;;;;;;;;;4994156;28;20236;-78
2024/02/26 02:20:03;;;;;;;15.93;15.23;;;;;;;;;;4993796;28;20214;-78
2024/02/26 02:22:33;;;;;;;15.52;14.93;;;;;;;;;;4992987;28;20233;-78
2024/02/26 02:25:00;;;;;;;15.68;14.98;;;;;;;;;;4976637;28;20239;-78
2024/02/26 02:27:27;;;;;;;15.48;14.82;;;;;;;;;;4974137;28;20284;-78
2024/02/26 02:29:54;;;;;;;15.95;15.25;;;;;;;;;;4974546;28;20211;-79
2024/02/26 02:32:21;;;;;;;15.85;15.07;;;;;;;;;;4973615;28;20563;-78
2024/02/26 02:34:48;;;;;;;14.93;14.23;;;;;;;;;;4988423;28;20618;-78
2024/02/26 02:37:15;;;;;;;15.60;14.80;;;;;;;;;;4994113;28;20260;-78
2024/02/26 02:39:44;;;;;;;15.43;14.73;;;;;;;;;;4993144;28;20198;-78
2024/02/26 02:42:12;;;;;;;16.23;15.43;;;;;;;;;;4974513;28;20233;-78
2024/02/26 02:44:39;;;;;;;15.52;14.73;;;;;;;;;;4974260;28;20556;-80
2024/02/26 02:47:06;;;;;;;16.07;15.37;;;;;;;;;;4974503;28;20207;-78
2024/02/26 02:49:32;;;;;;;15.90;15.18;;;;;;;;;;4974288;28;20454;-78
2024/02/26 02:51:59;;;;;;;15.82;15.00;;;;;;;;;;4973842;28;20206;-78
2024/02/26 02:54:26;;;;;;;15.57;14.88;;;;;;;;;;4973836;28;20227;-78
2024/02/26 02:56:55;;;;;;;16.20;15.50;;;;;;;;;;4974174;28;20238;-79
2024/02/26 02:59:22;;;;;;;16.20;15.50;;;;;;;;;;4974241;28;20210;-79
2024/02/26 03:01:49;;;;;;;15.82;15.02;;;;;;;;;;4973419;28;20337;-80
2024/02/26 03:04:16;;;;;;;15.90;15.05;;;;;;;;;;4974035;28;20293;-78
2024/02/26 03:06:43;;;;;;;15.52;14.82;;;;;;;;;;4973841;28;20191;-77
2024/02/26 03:09:10;;;;;;;16.23;15.32;;;;;;;;;;4973333;28;20199;-79
2024/02/26 03:11:37;;;;;;;15.75;15.07;;;;;;;;;;4972879;28;20202;-78
2024/02/26 03:14:06;;;;;;;15.85;15.05;;;;;;;;;;4973325;28;20250;-78
2024/02/26 03:16:33;;;;;;;15.57;14.88;;;;;;;;;;4973704;28;20219;-78
2024/02/26 03:19:00;;;;;;;15.02;14.40;;;;;;;;;;4973418;28;20295;-78
2024/02/26 03:21:29;;;;;;;15.10;14.40;;;;;;;;;;4973188;28;20207;-78
2024/02/26 03:23:57;;;;;;;15.18;14.52;;;;;;;;;;4973423;28;20687;-78
2024/02/26 03:26:24;;;;;;;16.38;15.60;;;;;;;;;;4973666;28;20210;-78
2024/02/26 03:28:51;;;;;;;15.60;14.90;;;;;;;;;;4976488;28;20281;-80
2024/02/26 03:31:19;;;;;;;15.77;15.07;;;;;;;;;;4977049;28;20248;-78
2024/02/26 03:33:46;;;;;;;15.30;14.63;;;;;;;;;;4976469;28;20235;-79
2024/02/26 03:36:13;;;;;;;15.60;14.90;;;;;;;;;;4977031;28;20203;-80
2024/02/26 03:38:40;;;;;;;15.25;14.60;;;;;;;;;;4977542;28;20246;-77
2024/02/26 03:41:08;;;;;;;15.60;14.90;;;;;;;;;;4976237;28;20211;-77
2024/02/26 03:43:35;;;;;;;15.50;14.80;;;;;;;;;;4995155;28;20249;-79
2024/02/26 03:46:02;;;;;;;15.60;14.90;;;;;;;;;;4996242;28;20206;-78
2024/02/26 03:48:30;;;;;;;15.75;15.05;;;;;;;;;;4996614;28;20202;-78
2024/02/26 03:50:57;;;;;;;15.70;15.00;;;;;;;;;;4995638;28;20210;-78
2024/02/26 03:53:24;;;;;;;16.33;15.52;;;;;;;;;;4995647;28;20469;-78
2024/02/26 03:55:52;;;;;;;15.30;14.70;;;;;;;;;;4995636;28;20210;-78
2024/02/26 03:58:19;;;;;;;15.68;14.88;;;;;;;;;;4981435;28;20210;-81
2024/02/26 04:00:47;;;;;;;15.90;15.18;;;;;;;;;;4975900;28;20261;-80
2024/02/26 04:03:14;;;;;;;15.60;14.90;;;;;;;;;;4976716;28;20237;-78
2024/02/26 04:05:42;;;;;;;15.13;14.52;;;;;;;;;;4976318;28;20629;-80
2024/02/26 04:08:10;;;;;;;15.95;15.25;;;;;;;;;;4976819;28;20556;-79
2024/02/26 04:10:39;;;;;;;15.68;14.98;;;;;;;;;;4975782;28;20672;-79
2024/02/26 04:13:06;;;;;;;15.30;14.70;;;;;;;;;;4978949;28;20238;-79
2024/02/26 04:15:33;;;;;;;15.70;15.02;;;;;;;;;;4978072;28;20270;-78
2024/02/26 04:18:00;;;;;;;15.30;14.60;;;;;;;;;;4992497;28;20217;-80
2024/02/26 04:20:27;;;;;;;15.60;14.90;;;;;;;;;;5000526;28;20203;-79
2024/02/26 04:22:55;;;;;;;16.63;15.43;;;;;;;;;;4996744;28;20226;-78
2024/02/26 04:25:22;;;;;;;16.80;15.90;;;;;;;;;;4996706;28;20601;-79
2024/02/26 04:27:49;;;;;;;16.27;15.57;;;;;;;;;;4996804;28;20248;-79
2024/02/26 04:30:17;;;;;;;15.48;14.77;;;;;;;;;;4996516;28;20206;-79
2024/02/26 04:32:44;;;;;;;15.63;14.93;;;;;;;;;;4995626;28;20245;-80
2024/02/26 04:35:12;;;;;;;15.38;14.77;;;;;;;;;;4995772;28;20230;-78
2024/02/26 04:37:39;;;;;;;15.57;14.87;;;;;;;;;;4996763;28;20404;-78
2024/02/26 04:40:08;;;;;;;15.85;15.05;;;;;;;;;;4992641;28;20458;-79
2024/02/26 04:42:35;;;;;;;15.50;14.80;;;;;;;;;;4995937;28;20217;-78
2024/02/26 04:45:03;;;;;;;15.48;14.88;;;;;;;;;;4996040;28;20222;-80
2024/02/26 04:47:30;;;;;;;15.88;15.18;;;;;;;;;;4979130;28;20257;-78
2024/02/26 04:49:57;;;;;;;15.68;14.98;;;;;;;;;;4991694;28;20217;-80
2024/02/26 04:52:24;;;;;;;15.10;14.40;;;;;;;;;;4980951;28;20215;-79
2024/02/26 04:54:51;;;;;;;15.45;14.75;;;;;;;;;;4982004;28;20234;-78
2024/02/26 04:57:20;;;;;;;15.43;14.75;;;;;;;;;;4977323;28;20627;-80
2024/02/26 04:59:47;;;;;;;15.10;14.50;;;;;;;;;;4977206;28;20210;-80
2024/02/26 05:02:14;;;;;;;15.25;14.63;;;;;;;;;;4976894;28;20207;-79
2024/02/26 05:04:41;;;;;;;15.20;14.52;;;;;;;;;;4975803;28;20235;-78
2024/02/26 05:07:08;;;;;;;16.50;15.70;;;;;;;;;;4976422;28;20258;-78
2024/02/26 05:09:35;;;;;;;16.30;15.50;;;;;;;;;;4976629;28;20211;-79
2024/02/26 05:12:02;;;;;;;16.40;15.70;;;;;;;;;;4976597;28;21249;-78
2024/02/26 05:14:30;;;;;;;15.55;14.90;;;;;;;;;;4976586;28;20325;-79
2024/02/26 05:16:57;;;;;;;15.85;15.15;;;;;;;;;;4977350;28;20215;-79
2024/02/26 05:19:24;;;;;;;15.63;14.93;;;;;;;;;;4979702;28;20667;-80
2024/02/26 05:21:51;;;;;;;16.08;15.40;;;;;;;;;;4979808;28;20930;-80
2024/02/26 05:24:22;;;;;;;15.80;15.07;;;;;;;;;;4978209;28;20260;-79
2024/02/26 05:26:49;;;;;;;15.60;14.90;;;;;;;;;;4977143;28;20633;-78
2024/02/26 05:29:16;;;;;;;15.90;15.10;;;;;;;;;;4976569;28;20211;-78
2024/02/26 05:31:45;;;;;;;15.75;14.98;;;;;;;;;;4975548;28;20634;-79
2024/02/26 05:34:12;;;;;;;15.60;14.90;;;;;;;;;;4975805;28;20231;-78
2024/02/26 05:36:38;;;;;;;15.75;15.05;;;;;;;;;;4976235;28;20207;-78
2024/02/26 05:39:05;;;;;;;15.20;14.60;;;;;;;;;;4975347;28;20655;-80
2024/02/26 05:41:32;;;;;;;14.90;14.20;;;;;;;;;;4976343;28;20218;-78
2024/02/26 05:43:59;;;;;;;15.37;14.77;;;;;;;;;;4975827;28;20480;-79
2024/02/26 05:46:26;;;;;;;16.02;15.32;;;;;;;;;;4976027;28;20451;-78
2024/02/26 05:48:55;;;;;;;15.88;15.18;;;;;;;;;;4975969;28;20211;-78
2024/02/26 05:51:22;;;;;;;15.93;15.23;;;;;;;;;;4990307;28;20210;-78
2024/02/26 05:53:53;;;;;;;15.83;15.03;;;;;;;;;;4975147;28;20254;-81
2024/02/26 05:56:20;;;;;;;15.05;14.45;;;;;;;;;;4975128;28;20951;-78
2024/02/26 05:58:47;;;;;;;15.68;14.88;;;;;;;;;;4975698;28;20619;-78
2024/02/26 06:01:14;;;;;;;15.23;14.52;;;;;;;;;;4974813;28;20253;-78
2024/02/26 06:03:41;;;;;;;15.75;14.98;;;;;;;;;;4990307;28;20226;-79
2024/02/26 06:06:10;;;;;;;15.63;14.90;;;;;;;;;;4991927;28;20206;-79
2024/02/26 06:08:37;;;;;;;15.60;14.80;;;;;;;;;;4984412;28;20450;-79
2024/02/26 06:11:06;;;;;;;15.25;14.30;;;;;;;;;;4986015;28;20212;-78
2024/02/26 06:13:34;;;;;;;14.85;14.25;;;;;;;;;;4986336;28;20218;-82
2024/02/26 06:16:02;;;;;;;15.73;15.03;;;;;;;;;;4989956;28;20210;-78
2024/02/26 06:18:29;;;;;;;16.20;15.50;;;;;;;;;;4989479;28;20561;-82
2024/02/26 06:20:56;;;;;;;15.48;14.73;;;;;;;;;;4983850;28;20893;-79
2024/02/26 06:23:25;;;;;;;15.55;14.85;;;;;;;;;;4985242;28;20226;-82
2024/02/26 06:25:52;;;;;;;15.00;14.30;;;;;;;;;;4988573;28;20317;-79
2024/02/26 06:28:19;;;;;;;15.73;14.93;;;;;;;;;;4994482;28;20260;-77
2024/02/26 06:30:47;;;;;;;15.40;14.70;;;;;;;;;;4993981;28;20737;-79
2024/02/26 06:33:14;;;;;;;15.60;14.90;;;;;;;;;;4995024;28;20473;-79
2024/02/26 06:35:41;;;;;;;15.37;14.67;;;;;;;;;;4992157;28;20218;-79
2024/02/26 06:38:09;;;;;;;16.30;15.50;;;;;;;;;;4986065;28;20461;-78
2024/02/26 06:40:37;;;;;;;15.70;15.00;;;;;;;;;;4994119;28;20365;-79
2024/02/26 06:43:04;;;;;;;15.67;14.90;;;;;;;;;;4983283;28;20230;-79
2024/02/26 06:45:31;;;;;;;16.35;15.55;;;;;;;;;;4984133;28;20532;-80
2024/02/26 06:47:59;;;;;;;16.20;15.40;;;;;;;;;;4994226;28;20210;-79
2024/02/26 06:50:26;;;;;;;16.80;15.90;;;;;;;;;;4994344;28;20206;-78
2024/02/26 06:52:53;;;;;;;16.20;15.40;;;;;;;;;;4978660;28;20211;-78
2024/02/26 06:55:20;;;;;;;16.80;16.00;;;;;;;;;;4977272;28;20207;-80
2024/02/26 06:57:48;;;;;;;16.52;15.82;;;;;;;;;;4990496;28;20264;-80
2024/02/26 07:00:16;;;;;;;17.50;16.52;;;;;;;;;;4984661;28;20299;-80
2024/02/26 07:02:43;;;;;;;16.60;15.90;;;;;;;;;;4997040;28;20216;-79
2024/02/26 07:05:10;;;;;;;17.60;16.75;;;;;;;;;;4998723;28;20229;-79
2024/02/26 07:07:37;;;;;;;17.48;16.67;;;;;;;;;;4998525;28;20214;-79
2024/02/26 07:10:05;;;;;;;16.45;15.65;;;;;;;;;;4999227;28;20260;-79
2024/02/26 07:12:32;;;;;;;16.00;15.30;;;;;;;;;;4982441;28;20288;-79
2024/02/26 07:15:02;;;;;;;16.50;15.70;;;;;;;;;;4979971;28;20470;-80
2024/02/26 07:17:29;;;;;;;17.17;16.17;;;;;;;;;;4984394;28;20221;-80
2024/02/26 07:19:56;;;;;;;16.60;15.90;;;;;;;;;;4988581;28;20528;-81
2024/02/26 07:22:24;;;;;;;16.88;16.08;;;;;;;;;;4978708;28;20872;-79
2024/02/26 07:24:51;;;;;;;16.70;15.93;;;;;;;;;;4982430;28;20234;-79
2024/02/26 07:27:18;;;;;;;16.50;15.80;;;;;;;;;;4992647;28;20269;-79
2024/02/26 07:29:45;;;;;;;17.13;16.33;;;;;;;;;;4989397;28;20715;-80
2024/02/26 07:32:14;;;;;;;16.20;15.38;;;;;;;;;;4989842;28;20427;-78
2024/02/26 07:34:41;;;;;;;15.95;15.25;;;;;;;;;;4994852;28;20245;-80
2024/02/26 07:37:08;;;;;;;17.45;16.65;;;;;;;;;;4979358;28;20218;-79
2024/02/26 07:39:36;;;;;;;17.40;16.58;;;;;;;;;;4978719;28;20219;-79
2024/02/26 07:42:04;;;;;;;17.67;16.77;;;;;;;;;;4978683;28;20221;-79
2024/02/26 07:44:31;;;;;;;17.77;16.98;;;;;;;;;;4978322;28;20242;-79
2024/02/26 07:46:58;;;;;;;18.08;17.10;;;;;;;;;;4978295;28;20270;-80
2024/02/26 07:49:26;;;;;;;17.65;16.85;;;;;;;;;;4979435;28;20210;-78
2024/02/26 07:51:53;;;;;;;16.60;15.90;;;;;;;;;;4978371;28;20269;-78
2024/02/26 07:54:20;;;;;;;17.02;16.23;;;;;;;;;;4981649;28;20730;-81
2024/02/26 07:56:47;;;;;;;17.60;16.70;;;;;;;;;;4985033;28;20250;-79
2024/02/26 07:59:14;;;;;;;17.77;16.75;;;;;;;;;;4996269;28;20573;-79
2024/02/26 08:01:41;;;;;;;17.70;16.80;;;;;;;;;;4996548;28;20229;-79
2024/02/26 08:04:08;;;;;;;16.55;15.75;;;;;;;;;;4993807;28;20464;-80
2024/02/26 08:06:36;;;;;;;17.33;16.58;;;;;;;;;;4984360;28;20241;-79
2024/02/26 08:09:04;;;;;;;16.38;15.68;;;;;;;;;;4996309;28;20261;-79
2024/02/26 08:11:31;;;;;;;16.50;15.70;;;;;;;;;;4992371;28;20610;-79
2024/02/26 08:13:58;;;;;;;17.00;16.20;;;;;;;;;;4977426;28;20784;-80
2024/02/26 08:16:25;;;;;;;17.17;16.37;;;;;;;;;;4979522;28;20557;-82
2024/02/26 08:18:52;;;;;;;17.40;16.58;;;;;;;;;;4981020;28;20450;-86
2024/02/26 08:21:20;;;;;;;16.77;16.07;;;;;;;;;;4982246;28;20285;-84
2024/02/26 08:23:48;;;;;;;15.90;15.10;;;;;;;;;;4983174;28;20482;-83
2024/02/26 08:26:15;;;;;;;16.30;15.60;;;;;;;;;;4985132;28;20457;-85
2024/02/26 08:28:42;;;;;;;16.73;16.03;;;;;;;;;;4984288;28;20454;-83
2024/02/26 08:31:09;;;;;;;17.40;16.60;;;;;;;;;;4982621;28;20429;-84
2024/02/26 08:33:37;;;;;;;17.40;16.50;;;;;;;;;;4984187;28;20482;-83
2024/02/26 08:36:05;;;;;;;17.50;16.60;;;;;;;;;;4984439;28;20450;-84
2024/02/26 08:38:34;;;;;;;17.83;16.87;;;;;;;;;;4987462;28;20664;-83
2024/02/26 08:41:03;;;;;;;18.47;17.50;;;;;;;;;;4983758;28;20544;-83
2024/02/26 08:43:30;;;;;;;17.77;16.90;;;;;;;;;;5002208;28;20512;-82
2024/02/26 08:45:57;;;;;;;18.80;17.80;;;;;;;;;;4991374;28;20559;-83
2024/02/26 08:48:24;;;;;;;18.65;17.60;;;;;;;;;;5003161;28;20461;-84
2024/02/26 08:50:51;;;;;;;18.17;17.27;;;;;;;;;;5001486;28;20574;-84
2024/02/26 08:53:18;;;;;;;18.30;17.40;;;;;;;;;;4995007;28;20234;-85
2024/02/26 08:55:45;;;;;;;18.70;17.70;;;;;;;;;;4982036;28;20433;-83
2024/02/26 08:58:14;;;;;;;19.03;17.93;;;;;;;;;;4981809;28;20469;-86
2024/02/26 09:00:41;;;;;;;18.85;17.83;;;;;;;;;;4981852;28;20452;-88
2024/02/26 09:03:08;;;;;;;19.10;18.10;;;;;;;;;;4996136;28;20273;-82
2024/02/26 09:05:35;;;;;;;19.30;18.10;;;;;;;;;;5000470;28;20492;-81
2024/02/26 09:08:02;;;;;;;19.37;18.30;;;;;;;;;;4998755;28;20262;-86
2024/02/26 09:10:29;;;;;;;19.33;17.80;;;;;;;;;;4994106;28;20447;-82
2024/02/26 09:12:56;;;;;;;19.30;18.10;;;;;;;;;;4993349;28;20457;-80
2024/02/26 09:15:24;;;;;;;19.47;18.27;;;;;;;;;;5003034;28;20441;-81
2024/02/26 09:17:52;;;;;;;20.70;19.20;;;;;;;;;;5003799;28;20518;-81
2024/02/26 09:20:19;;;;;;;19.43;18.13;;;;;;;;;;5000188;28;20508;-83
2024/02/26 09:22:47;;;;;;;19.83;18.60;;;;;;;;;;4997927;28;20458;-83
2024/02/26 09:25:15;;;;;;;19.57;18.47;;;;;;;;;;4990641;28;20482;-81
2024/02/26 09:27:43;;;;;;;19.57;18.43;;;;;;;;;;4988787;28;20514;-81
2024/02/26 09:30:10;;;;;;;20.97;19.57;;;;;;;;;;4998584;28;20453;-81
2024/02/26 09:32:38;;;;;;;21.43;20.07;;;;;;;;;;4998417;28;20416;-81
2024/02/26 09:35:06;;;;;;;21.47;19.97;;;;;;;;;;4998288;28;21351;-80
2024/02/26 09:37:33;;;;;;;20.37;19.17;;;;;;;;;;4998342;28;20504;-82
2024/02/26 09:40:00;;;;;;;20.87;19.57;;;;;;;;;;4998427;28;20540;-83
2024/02/26 09:42:28;;;;;;;21.53;20.30;;;;;;;;;;4997365;28;20453;-82
2024/02/26 09:44:56;;;;;;;19.90;18.80;;;;;;;;;;4997592;28;20489;-81
2024/02/26 09:47:24;;;;;;;19.50;18.40;;;;;;;;;;4998036;28;20452;-84
2024/02/26 09:49:53;;;;;;;21.10;19.90;;;;;;;;;;4997326;28;20457;-83
2024/02/26 09:52:21;;;;;;;19.50;18.40;;;;;;;;;;4997053;28;20435;-83
2024/02/26 09:54:49;;;;;;;20.80;19.50;;;;;;;;;;4998006;28;20481;-83
2024/02/26 09:57:17;;;;;;;21.83;20.33;;;;;;;;;;4997302;28;20932;-82
2024/02/26 09:59:44;;;;;;;21.17;19.87;;;;;;;;;;4996149;28;20474;-86
2024/02/26 10:02:13;;;;;;;20.97;19.57;;;;;;;;;;4987042;28;20449;-83
2024/02/26 10:04:41;;;;;;;41.80;23.10;;;;;;;;;;4996782;28;20481;-83
2024/02/26 10:07:11;;;;;;;20.23;19.03;;;;;;;;;;4992691;28;20441;-83
2024/02/26 10:09:38;;;;;;;21.13;19.93;;;;;;;;;;4984920;28;20453;-84
2024/02/26 10:12:06;;;;;;;20.07;18.87;;;;;;;;;;4986074;28;20502;-84
2024/02/26 10:14:33;;;;;;;20.80;19.47;;;;;;;;;;4992253;28;20494;-84
2024/02/26 10:17:01;;;;;;;21.40;20.00;;;;;;;;;;4991993;28;20461;-82
2024/02/26 10:19:29;;;;;;;21.23;19.90;;;;;;;;;;4994860;28;20489;-79
2024/02/26 10:21:58;;;;;;;22.40;21.00;;;;;;;;;;4989491;28;20496;-84
2024/02/26 10:24:27;;;;;;;21.60;20.10;;;;;;;;;;4997770;28;20469;-81
2024/02/26 10:26:54;;;;;;;21.60;20.30;;;;;;;;;;4987149;28;20487;-82
2024/02/26 10:29:21;;;;;;;21.20;19.90;;;;;;;;;;4982873;28;20488;-83
2024/02/26 10:31:48;;;;;;;21.03;19.73;;;;;;;;;;4977769;28;20487;-81
2024/02/26 10:34:16;;;;;;;19.97;18.87;;;;;;;;;;4990896;28;20993;-82
2024/02/26 10:36:43;;;;;;;20.00;18.90;;;;;;;;;;5000826;28;20953;-84
2024/02/26 10:39:11;;;;;;;20.47;19.20;;;;;;;;;;4990241;28;20508;-83
2024/02/26 10:41:40;;;;;;;20.70;19.50;;;;;;;;;;4996727;28;20500;-85
2024/02/26 10:44:07;;;;;;;19.73;18.63;;;;;;;;;;5003372;28;20964;-85
2024/02/26 10:46:34;;;;;;;20.27;19.07;;;;;;;;;;4989841;28;20525;-85
2024/02/26 10:49:01;;;;;;;19.90;18.80;;;;;;;;;;4986178;28;20937;-93
2024/02/26 10:51:29;;;;;;;20.13;19.03;;;;;;;;;;4998474;28;20977;-84
2024/02/26 10:53:58;;;;;;;20.67;19.47;;;;;;;;;;4990402;28;20595;-83
2024/02/26 10:56:27;;;;;;;21.20;20.00;;;;;;;;;;5005571;28;20449;-84
2024/02/26 10:58:56;;;;;;;20.03;19.00;;;;;;;;;;5004302;28;20488;-85
2024/02/26 11:01:25;;;;;;;19.93;18.83;;;;;;;;;;5002561;28;20861;-80
2024/02/26 11:03:52;;;;;;;20.07;19.00;;;;;;;;;;5002863;28;20469;-81
2024/02/26 11:06:20;;;;;;;20.50;19.20;;;;;;;;;;5002529;28;20460;-80
2024/02/26 11:08:49;;;;;;;20.30;19.10;;;;;;;;;;5002155;28;20845;-82
2024/02/26 11:11:16;;;;;;;20.37;19.27;;;;;;;;;;5002381;28;21344;-79
2024/02/26 11:13:45;;;;;;;20.90;19.63;;;;;;;;;;4999934;28;20519;-76
2024/02/26 11:16:13;;;;;;;19.83;18.73;;;;;;;;;;4998418;28;20453;-78
2024/02/26 11:18:42;;;;;;;20.33;19.23;;;;;;;;;;4989543;28;20463;-79
2024/02/26 11:21:09;;;;;;;20.67;19.57;;;;;;;;;;4987571;28;20977;-79
2024/02/26 11:23:40;;;;;;;20.90;19.70;;;;;;;;;;4998869;28;20532;-84
2024/02/26 11:26:07;;;;;;;20.50;19.30;;;;;;;;;;4998766;28;20477;-80
2024/02/26 11:28:35;;;;;;;19.93;18.83;;;;;;;;;;4999035;28;20460;-77
2024/02/26 11:31:04;;;;;;;21.10;19.57;;;;;;;;;;5000528;28;20452;-80
2024/02/26 11:33:32;;;;;;;22.77;21.27;;;;;;;;;;5003828;28;20536;-83
2024/02/26 11:36:00;;;;;;;21.40;19.90;;;;;;;;;;5005749;28;20500;-83
2024/02/26 11:38:28;;;;;;;20.50;19.30;;;;;;;;;;4993879;28;20504;-80
2024/02/26 11:40:55;;;;;;;20.87;19.57;;;;;;;;;;4982545;28;21018;-86
2024/02/26 11:43:25;;;;;;;22.30;20.90;;;;;;;;;;4984798;28;20462;-84
2024/02/26 11:45:52;;;;;;;22.13;20.73;;;;;;;;;;4983792;28;20492;-84
2024/02/26 11:48:23;;;;;;;21.80;20.60;;;;;;;;;;4979712;28;20450;-85
2024/02/26 11:50:52;;;;;;;22.37;21.07;;;;;;;;;;4982207;28;20492;-82
2024/02/26 11:53:22;;;;;;;22.87;21.17;;;;;;;;;;4981107;28;20516;-87
2024/02/26 11:55:50;;;;;;;23.07;21.60;;;;;;;;;;4978576;28;20441;-86
2024/02/26 11:58:17;;;;;;;23.60;21.93;;;;;;;;;;4978806;28;20505;-81
2024/02/26 12:00:44;;;;;;;22.93;21.60;;;;;;;;;;4976775;28;20515;-77
2024/02/26 12:03:12;;;;;;;25.43;23.63;;;;;;;;;;4975797;28;20482;-76
2024/02/26 12:05:39;;;;;;;24.00;22.40;;;;;;;;;;4974010;28;20492;-76
2024/02/26 12:08:09;;;;;;;23.87;22.47;;;;;;;;;;4978335;28;20453;-76
2024/02/26 12:10:38;;;;;;;25.53;23.73;;;;;;;;;;4993465;28;20452;-77
2024/02/26 12:13:08;;;;;;;23.90;22.30;;;;;;;;;;4992720;28;20448;-78
2024/02/26 12:15:37;;;;;;;24.93;23.33;;;;;;;;;;4973978;28;20453;-77
2024/02/26 12:18:05;;;;;;;24.10;22.40;;;;;;;;;;4973732;28;20458;-77
2024/02/26 12:20:32;;;;;;;23.10;21.67;;;;;;;;;;4973703;28;20449;-77
2024/02/26 12:22:59;;;;;;;23.47;21.97;;;;;;;;;;4973349;28;20474;-77
2024/02/26 12:25:30;;;;;;;22.10;20.70;;;;;;;;;;4973889;28;20557;-76
2024/02/26 12:27:57;;;;;;;23.00;21.60;;;;;;;;;;4973813;28;20470;-77
2024/02/26 12:30:25;;;;;;;23.70;22.20;;;;;;;;;;4973029;28;20951;-77
2024/02/26 12:32:56;;;;;;;23.00;21.47;;;;;;;;;;4972925;28;20935;-77
2024/02/26 12:35:24;;;;;;;23.00;21.30;;;;;;;;;;4973547;28;20458;-77
2024/02/26 12:37:52;;;;;;;21.27;20.07;;;;;;;;;;4973774;28;20457;-77
2024/02/26 12:40:19;;;;;;;22.63;21.17;;;;;;;;;;4973743;28;20453;-76
2024/02/26 12:42:47;;;;;;;22.30;20.97;;;;;;;;;;4972802;28;20458;-77
2024/02/26 12:45:16;;;;;;;24.47;22.10;;;;;;;;;;4973455;28;20788;-76
2024/02/26 12:47:43;;;;;;;21.30;19.90;;;;;;;;;;4987125;28;20488;-77
2024/02/26 12:50:11;;;;;;;22.23;20.93;;;;;;;;;;4992748;28;20457;-77
2024/02/26 12:52:40;;;;;;;20.80;19.50;;;;;;;;;;4992249;28;20542;-77
2024/02/26 12:55:08;;;;;;;21.30;20.00;;;;;;;;;;4977126;28;20524;-79
2024/02/26 12:57:36;;;;;;;21.20;20.00;;;;;;;;;;4987320;28;20453;-81
2024/02/26 13:00:06;;;;;;;22.00;20.57;;;;;;;;;;4985261;28;20476;-81
2024/02/26 13:02:34;;;;;;;22.10;20.43;;;;;;;;;;4987706;28;20456;-82
2024/02/26 13:05:01;;;;;;;21.00;19.80;;;;;;;;;;4993598;28;20473;-81
2024/02/26 13:07:28;;;;;;;21.67;20.10;;;;;;;;;;5000066;28;20492;-85
2024/02/26 13:09:56;;;;;;;21.33;20.13;;;;;;;;;;5016475;28;20465;-88
2024/02/26 13:12:23;;;;;;;19.67;18.53;;;;;;;;;;5014717;28;20508;-88
2024/02/26 13:15:00;;;;;;;20.00;18.80;;;;;;;;;;4995110;28;20470;-86
2024/02/26 13:17:28;;;;;;;19.70;18.50;;;;;;;;;;4982061;28;20452;-86
2024/02/26 13:19:56;;;;;;;20.70;19.50;;;;;;;;;;4982709;28;20429;-90
2024/02/26 13:22:23;;;;;;;20.37;19.17;;;;;;;;;;4987075;28;20433;-91
2024/02/26 13:24:56;;;;;;;19.03;17.93;;;;;;;;;;4985707;28;20489;-90
2024/02/26 13:27:24;;;;;;;19.87;18.67;;;;;;;;;;4996898;28;20535;-87
2024/02/26 13:30:03;;;;;;;19.77;18.67;;;;;;;;;;5000752;28;20467;-91
2024/02/26 13:32:33;;;;;;;18.87;17.83;;;;;;;;;;5000797;28;20445;-89
2024/02/26 13:35:06;;;;;;;19.00;18.00;;;;;;;;;;4997474;28;20460;-82
2024/02/26 13:37:33;;;;;;;19.37;18.37;;;;;;;;;;4998812;28;20533;-80
2024/02/26 13:40:04;;;;;;;19.30;18.37;;;;;;;;;;5001766;28;21170;-86
2024/02/26 13:42:31;;;;;;;19.60;18.40;;;;;;;;;;4999064;28;20416;-83
2024/02/26 13:44:58;;;;;;;20.60;19.40;;;;;;;;;;5000446;28;20492;-84
2024/02/26 13:47:25;;;;;;;18.87;18.00;;;;;;;;;;4999762;28;20507;-85
2024/02/26 13:49:53;;;;;;;19.47;18.43;;;;;;;;;;4999258;28;20457;-82
2024/02/26 13:52:20;;;;;;;19.40;18.30;;;;;;;;;;4996375;28;20468;-80
2024/02/26 13:54:47;;;;;;;18.40;17.50;;;;;;;;;;4996670;28;20477;-81
2024/02/26 13:57:15;;;;;;;19.47;18.40;;;;;;;;;;4984615;28;20818;-86
2024/02/26 13:59:42;;;;;;;19.13;18.23;;;;;;;;;;5005060;28;20437;-80
2024/02/26 14:02:09;;;;;;;18.40;17.50;;;;;;;;;;5017117;28;20452;-82
2024/02/26 14:04:36;;;;;;;18.43;17.53;;;;;;;;;;5017974;28;20535;-86
2024/02/26 14:07:05;;;;;;;19.37;18.20;;;;;;;;;;4997689;28;20472;-80
2024/02/26 14:09:32;;;;;;;19.65;18.63;;;;;;;;;;4982472;28;20512;-80
2024/02/26 14:11:59;;;;;;;19.23;18.33;;;;;;;;;;4989503;28;20620;-81
2024/02/26 14:14:26;;;;;;;19.53;18.23;;;;;;;;;;4984178;28;20483;-82
2024/02/26 14:16:53;;;;;;;18.83;17.83;;;;;;;;;;4996564;28;20441;-81
2024/02/26 14:19:20;;;;;;;19.73;18.63;;;;;;;;;;4996561;28;20206;-80